Time;durP1;ratioP1;P1;durP2;ratioP2;P2;SDS_P1;SDS_P2;PMS_P1;PMS_P2;Temp;Humidity;BMP_temperature;BMP_pressure;BME280_temperature;BME280_humidity;BME280_pressure;Samples;Min_cycle;Max_cycle;Signal;HPM_P1;HPM_P2
2023/01/25 00:00:21;;;;;;;43.92;26.05;;;1.90;99.90;;;;;;5028281;28;20048;-91
2023/01/25 00:02:46;;;;;;;45.08;27.50;;;0.70;99.90;;;;;;5030587;28;20614;-91
2023/01/25 00:05:12;;;;;;;48.25;27.27;;;0.70;99.90;;;;;;5028358;28;20045;-91
2023/01/25 00:07:38;;;;;;;48.53;28.50;;;0.70;99.90;;;;;;5014248;28;20373;-92
2023/01/25 00:10:04;;;;;;;45.50;27.42;;;0.70;99.90;;;;;;5024030;28;20419;-92
2023/01/25 00:12:29;;;;;;;47.80;27.70;;;0.70;99.90;;;;;;5029206;28;20045;-92
2023/01/25 00:14:55;;;;;;;48.40;28.58;;;0.70;99.90;;;;;;5013933;28;20116;-92
2023/01/25 00:17:20;;;;;;;49.92;28.55;;;0.70;99.90;;;;;;5014164;28;20563;-91
2023/01/25 00:19:46;;;;;;;51.28;28.88;;;0.70;99.90;;;;;;5013711;28;20125;-91
2023/01/25 00:22:12;;;;;;;45.85;26.52;;;0.70;99.90;;;;;;5023045;28;20122;-92
2023/01/25 00:24:37;;;;;;;46.67;27.48;;;0.70;99.90;;;;;;5032791;28;20123;-92
2023/01/25 00:27:03;;;;;;;47.40;27.00;;;0.50;99.90;;;;;;5032801;28;20067;-92
2023/01/25 00:29:28;;;;;;;45.50;26.95;;;0.70;99.90;;;;;;5029801;28;20046;-92
2023/01/25 00:32:00;;;;;;;45.33;26.38;;;0.70;99.90;;;;;;5012976;28;20052;-91
2023/01/25 00:34:26;;;;;;;44.60;25.67;;;0.70;99.90;;;;;;5030184;28;20057;-91
2023/01/25 00:36:56;;;;;;;48.80;27.10;;;0.70;99.90;;;;;;5033247;28;20412;-91
2023/01/25 00:39:24;;;;;;;46.83;27.25;;;0.70;99.90;;;;;;5032256;28;20044;-91
2023/01/25 00:41:49;;;;;;;48.03;28.35;;;0.70;99.90;;;;;;5027705;28;20053;-92
2023/01/25 00:44:15;;;;;;;46.42;27.13;;;0.70;99.90;;;;;;5019360;28;20054;-91
2023/01/25 00:46:41;;;;;;;47.63;28.48;;;1.50;99.90;;;;;;5038774;28;20045;-92
2023/01/25 00:49:23;;;;;;;45.92;26.38;;;0.70;99.90;;;;;;5024326;28;20093;-92
2023/01/25 00:51:50;;;;;;;47.40;26.67;;;0.70;99.90;;;;;;5028336;28;20115;-91
2023/01/25 00:54:17;;;;;;;49.03;27.45;;;1.70;99.90;;;;;;5013694;28;20124;-91
2023/01/25 00:56:42;;;;;;;47.83;28.23;;;0.60;99.90;;;;;;5040628;28;20042;-91
2023/01/25 00:59:09;;;;;;;46.08;27.98;;;0.60;99.90;;;;;;5026315;28;20126;-91
2023/01/25 01:01:35;;;;;;;46.38;27.60;;;0.60;99.90;;;;;;5027948;28;20045;-91
2023/01/25 01:04:01;;;;;;;48.08;28.27;;;1.50;99.90;;;;;;5040509;28;20041;-92
2023/01/25 01:06:26;;;;;;;47.28;27.70;;;0.50;99.90;;;;;;5029079;28;20195;-91
2023/01/25 01:09:10;;;;;;;48.95;26.95;;;0.60;99.90;;;;;;5021565;28;20048;-91
2023/01/25 01:16:10;;;;;;;;;;;;;;;;;;;;;
2023/01/25 01:19:15;;;;;;;46.63;27.67;;;0.50;99.90;;;;;;5046506;28;20049;-92
2023/01/25 01:25:55;;;;;;;49.88;28.38;;;0.50;99.90;;;;;;5034538;28;20059;-91
2023/01/25 01:28:21;;;;;;;46.67;26.52;;;0.20;99.90;;;;;;5025481;28;20053;-92
2023/01/25 01:30:46;;;;;;;51.70;28.95;;;0.40;99.90;;;;;;5014714;28;20076;-91
2023/01/25 01:33:12;;;;;;;50.80;28.63;;;0.50;99.90;;;;;;5030240;28;20136;-91
2023/01/25 01:35:38;;;;;;;48.08;27.25;;;1.30;99.90;;;;;;5030774;28;20069;-90
2023/01/25 01:38:04;;;;;;;48.38;28.10;;;0.40;99.90;;;;;;5032137;28;20057;-92
2023/01/25 01:40:29;;;;;;;49.72;28.77;;;0.70;99.90;;;;;;5031635;28;20102;-91
2023/01/25 01:43:14;;;;;;;49.13;29.17;;;0.40;99.90;;;;;;5031453;28;20491;-92
2023/01/25 01:45:46;;;;;;;48.42;28.50;;;0.50;99.90;;;;;;5031409;28;20051;-91
2023/01/25 01:48:18;;;;;;;48.28;28.58;;;0.40;99.90;;;;;;5027405;28;20047;-91
2023/01/25 01:50:44;;;;;;;51.42;29.00;;;0.20;99.90;;;;;;5038405;28;20045;-91
2023/01/25 01:53:10;;;;;;;50.58;28.42;;;0.40;99.90;;;;;;5029639;28;20054;-91
2023/01/25 01:55:36;;;;;;;48.85;28.17;;;0.30;99.90;;;;;;5029061;28;20484;-91
2023/01/25 01:58:03;;;;;;;49.05;29.20;;;0.50;99.90;;;;;;5033672;28;20045;-92
2023/01/25 02:00:33;;;;;;;48.33;28.15;;;0.50;99.90;;;;;;5022449;28;20037;-92
2023/01/25 02:03:00;;;;;;;47.95;26.73;;;0.40;99.90;;;;;;5034460;28;20102;-92
2023/01/25 02:05:49;;;;;;;46.65;27.83;;;0.40;99.90;;;;;;5031037;28;20472;-91
2023/01/25 02:08:18;;;;;;;45.30;26.17;;;0.20;99.90;;;;;;5016001;28;20091;-91
2023/01/25 02:10:46;;;;;;;47.03;27.13;;;0.40;99.90;;;;;;5017504;28;20042;-91
2023/01/25 02:13:16;;;;;;;49.60;28.10;;;0.40;99.90;;;;;;5017302;28;20053;-92
2023/01/25 02:15:46;;;;;;;48.67;28.70;;;0.30;99.90;;;;;;5026205;28;20056;-92
2023/01/25 02:18:12;;;;;;;46.67;27.52;;;0.40;99.90;;;;;;5026084;28;20483;-91
2023/01/25 02:20:42;;;;;;;45.83;27.15;;;0.40;99.90;;;;;;5026149;28;20052;-91
2023/01/25 02:23:16;;;;;;;47.20;27.13;;;0.90;99.90;;;;;;5030801;28;20041;-92
2023/01/25 02:25:42;;;;;;;45.67;26.75;;;0.40;99.90;;;;;;5014560;28;20041;-92
2023/01/25 02:28:18;;;;;;;46.72;26.17;;;0.40;99.90;;;;;;5047454;28;20046;-91
2023/01/25 02:30:47;;;;;;;48.03;27.02;;;0.30;99.90;;;;;;5049581;28;20057;-92
2023/01/25 02:33:13;;;;;;;46.22;26.38;;;0.30;99.90;;;;;;5034400;28;20525;-92
2023/01/25 02:35:46;;;;;;;46.55;27.35;;;0.30;99.90;;;;;;5030137;28;20049;-92
2023/01/25 02:38:14;;;;;;;42.83;26.13;;;0.10;99.90;;;;;;5014940;28;20042;-92
2023/01/25 02:40:54;;;;;;;44.72;26.10;;;0.30;99.90;;;;;;5024180;28;20044;-91
2023/01/25 02:43:23;;;;;;;45.63;26.10;;;0.30;99.90;;;;;;5033736;28;20044;-92
2023/01/25 02:45:57;;;;;;;42.90;25.38;;;0.30;99.90;;;;;;5033189;28;20045;-91
2023/01/25 02:48:22;;;;;;;45.28;26.13;;;0.20;99.90;;;;;;5020454;28;20044;-92
2023/01/25 02:50:48;;;;;;;46.63;26.80;;;0.20;99.90;;;;;;5049899;28;20053;-91
2023/01/25 02:53:13;;;;;;;45.75;26.15;;;0.20;99.90;;;;;;5034044;28;20049;-92
2023/01/25 02:55:39;;;;;;;47.25;26.77;;;0.20;99.90;;;;;;5030384;28;20392;-92
2023/01/25 02:58:07;;;;;;;48.53;27.10;;;0.20;99.90;;;;;;5030084;28;20045;-91
2023/01/25 03:00:33;;;;;;;50.67;28.70;;;0.20;99.90;;;;;;5050612;28;20045;-92
2023/01/25 03:02:59;;;;;;;47.30;26.73;;;1.00;99.90;;;;;;5033970;28;20114;-92
2023/01/25 03:05:25;;;;;;;45.22;26.13;;;0.20;99.90;;;;;;5032400;28;20044;-92
2023/01/25 03:07:51;;;;;;;47.13;26.58;;;0.20;99.90;;;;;;5034229;28;20580;-92
2023/01/25 03:10:17;;;;;;;46.92;26.17;;;0.10;99.90;;;;;;5028374;28;20207;-92
2023/01/25 03:12:45;;;;;;;47.35;27.80;;;0.20;99.90;;;;;;5035180;28;20041;-92
2023/01/25 03:15:11;;;;;;;47.83;27.90;;;0.60;99.90;;;;;;5033535;28;20045;-91
2023/01/25 03:17:36;;;;;;;48.60;28.80;;;0.90;99.90;;;;;;5030887;28;20046;-90
2023/01/25 03:20:02;;;;;;;48.83;27.30;;;0.50;99.90;;;;;;5033105;28;20033;-90
2023/01/25 03:22:28;;;;;;;47.40;26.52;;;0.20;99.90;;;;;;5034035;28;20103;-92
2023/01/25 03:24:56;;;;;;;46.70;26.27;;;0.00;99.90;;;;;;5033551;28;20128;-92
2023/01/25 03:27:21;;;;;;;46.38;26.35;;;0.10;99.90;;;;;;5049998;28;20041;-92
2023/01/25 03:29:47;;;;;;;42.80;24.35;;;0.90;99.90;;;;;;5033137;28;20047;-93
2023/01/25 03:32:13;;;;;;;48.42;27.05;;;0.20;99.90;;;;;;5032579;28;20467;-92
2023/01/25 03:34:39;;;;;;;47.35;27.50;;;0.20;99.90;;;;;;5033345;28;20040;-91
2023/01/25 03:37:04;;;;;;;49.88;27.83;;;0.20;99.90;;;;;;5033907;28;20554;-92
2023/01/25 03:39:30;;;;;;;46.35;27.35;;;0.10;99.90;;;;;;5033091;28;20053;-92
2023/01/25 03:41:56;;;;;;;45.80;25.50;;;0.70;99.90;;;;;;5032048;28;20174;-92
2023/01/25 03:44:21;;;;;;;46.83;26.98;;;1.30;99.90;;;;;;5033599;28;20072;-92
2023/01/25 03:46:47;;;;;;;48.25;27.42;;;0.20;99.90;;;;;;5030331;28;20047;-92
2023/01/25 03:49:13;;;;;;;48.85;26.65;;;0.20;99.90;;;;;;5024703;28;20049;-91
2023/01/25 03:51:38;;;;;;;44.00;25.63;;;0.20;99.90;;;;;;5027052;28;20044;-93
2023/01/25 03:54:04;;;;;;;46.03;26.77;;;-0.10;99.90;;;;;;5031414;28;20043;-93
2023/01/25 03:56:30;;;;;;;48.78;26.48;;;0.10;99.90;;;;;;5029865;28;20110;-91
2023/01/25 03:58:56;;;;;;;45.10;25.90;;;1.00;99.90;;;;;;5032792;28;20068;-93
2023/01/25 04:01:21;;;;;;;50.65;26.65;;;0.20;99.90;;;;;;5029266;28;20057;-92
2023/01/25 04:03:47;;;;;;;45.00;25.92;;;0.20;99.90;;;;;;5028308;28;20048;-92
2023/01/25 04:06:12;;;;;;;45.08;26.30;;;0.10;99.90;;;;;;5028615;28;20128;-92
2023/01/25 04:08:38;;;;;;;49.22;27.45;;;0.40;99.90;;;;;;5032736;28;20075;-93
2023/01/25 04:11:06;;;;;;;46.08;27.42;;;0.20;99.90;;;;;;5026205;28;20099;-92
2023/01/25 04:13:35;;;;;;;47.03;26.67;;;0.10;99.90;;;;;;5022594;28;20045;-91
2023/01/25 04:16:10;;;;;;;45.03;26.80;;;0.20;99.90;;;;;;5031192;28;20066;-91
2023/01/25 04:18:37;;;;;;;41.03;23.15;;;0.20;99.90;;;;;;5033154;28;20041;-93
2023/01/25 04:21:02;;;;;;;41.10;24.85;;;0.10;99.90;;;;;;5032356;28;20047;-91
2023/01/25 04:23:28;;;;;;;44.72;24.80;;;0.70;99.90;;;;;;5033855;28;20127;-92
2023/01/25 04:25:58;;;;;;;41.70;24.60;;;0.10;99.90;;;;;;5033608;28;20059;-92
2023/01/25 04:28:25;;;;;;;41.92;23.70;;;0.10;99.90;;;;;;5029862;28;20085;-91
2023/01/25 04:30:52;;;;;;;40.33;24.02;;;0.10;99.90;;;;;;5030098;28;20056;-92
2023/01/25 04:33:17;;;;;;;37.83;21.63;;;0.00;99.90;;;;;;5013513;28;20056;-91
2023/01/25 04:35:45;;;;;;;43.22;24.15;;;0.10;99.90;;;;;;5017600;28;20044;-92
2023/01/25 04:38:11;;;;;;;40.50;24.10;;;0.00;99.90;;;;;;5029335;28;20120;-92
2023/01/25 04:40:37;;;;;;;39.00;23.30;;;0.00;99.90;;;;;;5028259;28;20116;-92
2023/01/25 04:43:03;;;;;;;37.58;21.58;;;0.10;99.90;;;;;;5013479;28;20048;-92
2023/01/25 04:45:28;;;;;;;37.83;22.38;;;0.60;99.90;;;;;;5020683;28;20037;-91
2023/01/25 04:47:56;;;;;;;38.42;22.42;;;0.40;99.90;;;;;;5017389;28;20080;-91
2023/01/25 04:50:22;;;;;;;41.47;23.00;;;0.00;99.90;;;;;;5031089;28;20049;-91
2023/01/25 04:52:47;;;;;;;38.10;22.55;;;-0.10;99.90;;;;;;5029549;28;20064;-92
2023/01/25 04:55:13;;;;;;;38.88;22.50;;;0.00;99.90;;;;;;5021967;28;20090;-92
2023/01/25 04:57:39;;;;;;;38.42;22.83;;;0.00;99.90;;;;;;5029385;28;20428;-92
2023/01/25 05:00:08;;;;;;;39.05;22.52;;;0.00;99.90;;;;;;5030127;28;20047;-92
2023/01/25 05:02:34;;;;;;;40.85;23.77;;;-0.10;99.90;;;;;;5021309;28;20037;-91
2023/01/25 05:05:00;;;;;;;39.30;22.63;;;0.00;99.90;;;;;;5028932;28;20067;-92
2023/01/25 05:07:25;;;;;;;41.38;22.95;;;0.00;99.90;;;;;;5021240;28;20075;-92
2023/01/25 05:09:51;;;;;;;40.80;23.65;;;-0.30;99.90;;;;;;5031713;28;20494;-92
2023/01/25 05:12:17;;;;;;;39.10;23.55;;;0.80;99.90;;;;;;5028714;28;20133;-91
2023/01/25 05:14:43;;;;;;;42.58;23.48;;;0.40;99.90;;;;;;5014404;28;20275;-92
2023/01/25 05:17:09;;;;;;;42.42;23.27;;;0.00;99.90;;;;;;5032495;28;20056;-92
2023/01/25 05:19:35;;;;;;;40.92;23.02;;;0.00;99.90;;;;;;5031623;28;20096;-92
2023/01/25 05:22:06;;;;;;;38.75;21.60;;;0.00;99.90;;;;;;5022408;28;20132;-92
2023/01/25 05:24:33;;;;;;;43.63;25.08;;;0.90;99.90;;;;;;5015273;28;20045;-92
2023/01/25 05:27:00;;;;;;;42.30;24.33;;;0.00;99.90;;;;;;5024409;28;20047;-92
2023/01/25 05:29:36;;;;;;;43.30;24.13;;;0.00;99.90;;;;;;5017798;28;20451;-92
2023/01/25 05:32:04;;;;;;;44.10;24.00;;;0.00;99.90;;;;;;5048965;28;20042;-92
2023/01/25 05:34:31;;;;;;;38.30;22.85;;;0.70;99.90;;;;;;5023612;28;20076;-92
2023/01/25 05:36:57;;;;;;;42.83;24.23;;;0.00;99.90;;;;;;5034682;28;20119;-92
2023/01/25 05:39:22;;;;;;;42.83;24.77;;;0.00;99.90;;;;;;5025561;28;20125;-92
2023/01/25 05:41:48;;;;;;;42.38;22.67;;;0.00;99.90;;;;;;5046776;28;20052;-92
2023/01/25 05:44:14;;;;;;;44.65;24.40;;;0.00;99.90;;;;;;5032540;28;20547;-92
2023/01/25 05:46:40;;;;;;;42.28;23.60;;;0.00;99.90;;;;;;5024001;28;20660;-91
2023/01/25 05:49:09;;;;;;;40.00;24.15;;;0.00;99.90;;;;;;5032259;28;20044;-92
2023/01/25 05:51:35;;;;;;;41.15;23.33;;;0.00;99.90;;;;;;5020281;28;20030;-92
2023/01/25 05:54:01;;;;;;;45.97;25.08;;;0.00;99.90;;;;;;5043450;28;20037;-92
2023/01/25 05:56:27;;;;;;;43.65;23.92;;;0.00;99.90;;;;;;5032712;28;20036;-93
2023/01/25 05:58:54;;;;;;;42.55;23.70;;;0.00;99.90;;;;;;5036201;28;20495;-92
2023/01/25 06:01:20;;;;;;;42.00;23.65;;;0.00;99.90;;;;;;5033533;28;20052;-92
2023/01/25 06:03:46;;;;;;;46.72;24.65;;;0.00;99.90;;;;;;5031349;28;20064;-92
2023/01/25 06:06:12;;;;;;;42.67;23.83;;;0.00;99.90;;;;;;5028072;28;20049;-92
2023/01/25 06:08:41;;;;;;;45.50;26.00;;;0.00;99.90;;;;;;5036709;28;20502;-92
2023/01/25 06:11:08;;;;;;;46.80;26.33;;;0.70;99.90;;;;;;5035801;28;20044;-91
2023/01/25 06:13:34;;;;;;;45.47;24.67;;;0.10;99.90;;;;;;5035690;28;20051;-93
2023/01/25 06:16:00;;;;;;;46.33;25.88;;;0.10;99.90;;;;;;5016385;28;20054;-93
2023/01/25 06:18:27;;;;;;;44.55;24.77;;;0.00;99.90;;;;;;5019021;28;20037;-92
2023/01/25 06:20:56;;;;;;;44.53;25.60;;;0.00;99.90;;;;;;5036158;28;20352;-91
2023/01/25 06:23:21;;;;;;;47.45;26.73;;;0.00;99.90;;;;;;5032199;28;20057;-92
2023/01/25 06:25:47;;;;;;;45.03;25.23;;;0.00;99.90;;;;;;5015551;28;20041;-93
2023/01/25 06:28:13;;;;;;;45.38;24.23;;;1.10;99.90;;;;;;5033881;28;20182;-93
2023/01/25 06:30:42;;;;;;;46.20;25.17;;;-0.10;99.90;;;;;;5050976;28;20045;-92
2023/01/25 06:33:07;;;;;;;40.80;23.30;;;-0.10;99.90;;;;;;5032259;28;20057;-93
2023/01/25 06:35:39;;;;;;;47.13;26.17;;;0.40;99.90;;;;;;5021042;28;20053;-94
2023/01/25 06:38:05;;;;;;;45.60;25.02;;;-0.70;99.90;;;;;;5017242;28;20132;-93
2023/01/25 06:40:31;;;;;;;43.58;24.08;;;0.00;99.90;;;;;;5027626;28;20402;-92
2023/01/25 06:43:10;;;;;;;43.55;24.27;;;1.10;99.90;;;;;;5049389;28;20451;-93
2023/01/25 06:45:36;;;;;;;42.15;24.35;;;-0.10;99.90;;;;;;5034207;28;20049;-92
2023/01/25 06:48:04;;;;;;;46.60;24.48;;;-0.10;99.90;;;;;;5026746;28;20045;-90
2023/01/25 06:50:30;;;;;;;45.28;25.15;;;-0.10;99.90;;;;;;5042575;28;20060;-92
2023/01/25 06:52:55;;;;;;;41.92;23.17;;;-0.40;99.90;;;;;;5034007;28;20041;-92
2023/01/25 06:55:21;;;;;;;43.25;24.08;;;0.90;99.90;;;;;;5034000;28;20045;-92
2023/01/25 06:57:47;;;;;;;41.80;23.85;;;-0.30;99.90;;;;;;5034861;28;20084;-92
2023/01/25 07:00:33;;;;;;;43.83;23.92;;;-0.20;99.90;;;;;;5033757;28;20051;-90
2023/01/25 07:02:59;;;;;;;45.47;24.45;;;-0.10;99.90;;;;;;5032888;28;20049;-90
2023/01/25 07:05:25;;;;;;;43.05;24.05;;;-0.10;99.90;;;;;;5034021;28;20057;-92
2023/01/25 07:07:52;;;;;;;41.22;24.42;;;-0.20;99.90;;;;;;5029578;28;20053;-91
2023/01/25 07:10:18;;;;;;;44.40;25.00;;;0.60;99.90;;;;;;5024460;28;20037;-91
2023/01/25 07:12:46;;;;;;;44.33;24.20;;;-0.10;99.90;;;;;;5033811;28;20094;-91
2023/01/25 07:15:12;;;;;;;47.53;26.88;;;-0.10;99.90;;;;;;5033069;28;20144;-91
2023/01/25 07:17:37;;;;;;;41.88;23.80;;;-0.10;99.90;;;;;;5032761;28;20066;-91
2023/01/25 07:20:03;;;;;;;42.70;25.30;;;-0.10;99.90;;;;;;5032821;28;20037;-90
2023/01/25 07:22:29;;;;;;;41.33;24.10;;;-0.10;99.90;;;;;;5032361;28;20124;-91
2023/01/25 07:24:57;;;;;;;44.72;26.17;;;;;;;;;;5032920;28;20422;-92
2023/01/25 07:27:23;;;;;;;43.55;24.90;;;;;;;;;;5032441;28;20471;-93
2023/01/25 07:29:49;;;;;;;44.38;23.67;;;;;;;;;;5032997;28;20044;-91
2023/01/25 07:32:18;;;;;;;41.50;23.60;;;;;;;;;;5033876;28;20068;-91
2023/01/25 07:34:44;;;;;;;42.78;23.60;;;;;;;;;;5033362;28;20049;-92
2023/01/25 07:37:10;;;;;;;44.00;24.05;;;;;;;;;;5033372;28;20116;-89
2023/01/25 07:39:36;;;;;;;45.38;24.83;;;;;;;;;;5029294;28;20045;-90
2023/01/25 07:42:02;;;;;;;41.58;24.00;;;;;;;;;;5042395;28;20044;-91
2023/01/25 07:44:28;;;;;;;43.90;23.83;;;;;;;;;;5029489;28;20052;-91
2023/01/25 07:46:55;;;;;;;41.85;23.25;;;;;;;;;;5013124;28;20056;-91
2023/01/25 07:49:21;;;;;;;43.65;23.95;;;;;;;;;;5013725;28;20500;-91
2023/01/25 07:51:47;;;;;;;48.97;26.42;;;;;;;;;;5013806;28;20052;-91
2023/01/25 07:54:13;;;;;;;46.80;25.85;;;;;;;;;;5016060;28;20041;-89
2023/01/25 07:56:39;;;;;;;46.05;24.75;;;;;;;;;;5032717;28;20056;-91
2023/01/25 07:59:08;;;;;;;41.95;23.83;;;;;;;;;;5033046;28;20482;-93
2023/01/25 08:01:35;;;;;;;47.30;25.58;;;;;;;;;;5033343;28;20045;-93
2023/01/25 08:04:02;;;;;;;41.30;21.85;;;;;;;;;;5033969;28;20060;-95
2023/01/25 08:06:37;;;;;;;39.20;22.73;;;;;;;;;;5035612;28;20052;-94
2023/01/25 08:09:06;;;;;;;43.22;23.90;;;;;;;;;;5030457;28;20041;-93
2023/01/25 08:11:33;;;;;;;44.25;24.35;;;;;;;;;;5013612;28;20056;-90
2023/01/25 08:14:01;;;;;;;41.50;21.58;;;;;;;;;;5018262;28;20048;-89
2023/01/25 08:16:28;;;;;;;39.53;22.35;;;;;;;;;;5029832;28;20049;-90
2023/01/25 08:18:55;;;;;;;40.80;22.65;;;;;;;;;;5019813;28;20045;-92
2023/01/25 08:21:24;;;;;;;39.33;21.85;;;;;;;;;;5031088;28;20566;-91
2023/01/25 08:23:50;;;;;;;42.15;22.80;;;;;;;;;;5030322;28;20463;-90
2023/01/25 08:26:16;;;;;;;42.20;23.33;;;;;;;;;;5029218;28;20045;-93
2023/01/25 08:28:42;;;;;;;43.38;23.75;;;;;;;;;;5029518;28;20145;-91
2023/01/25 08:31:10;;;;;;;41.40;23.13;;;;;;;;;;5029642;28;20132;-90
2023/01/25 08:33:36;;;;;;;44.35;23.10;;;;;;;;;;5030194;28;20132;-92
2023/01/25 08:36:02;;;;;;;43.17;23.98;;;;;;;;;;5031740;28;20057;-94
2023/01/25 08:38:28;;;;;;;43.38;22.73;;;;;;;;;;5046127;28;20056;-93
2023/01/25 08:40:54;;;;;;;44.22;24.63;;;;;;;;;;5013191;28;20077;-93
2023/01/25 08:43:20;;;;;;;42.72;23.40;;;;;;;;;;5018906;28;20045;-92
2023/01/25 08:45:47;;;;;;;47.60;24.50;;;;;;;;;;5032101;28;20051;-92
2023/01/25 08:48:15;;;;;;;44.60;23.95;;;;;;;;;;5030252;28;20074;-92
2023/01/25 08:50:47;;;;;;;44.78;24.27;;;;;;;;;;5032557;28;20076;-91
2023/01/25 08:53:13;;;;;;;44.53;23.10;;;;;;;;;;5032495;28;20041;-92
2023/01/25 08:55:41;;;;;;;44.60;23.85;;;;;;;;;;5017767;28;20399;-92
2023/01/25 08:58:09;;;;;;;48.55;24.33;;;;;;;;;;5033011;28;20084;-92
2023/01/25 09:00:37;;;;;;;43.50;23.20;;;;;;;;;;5032243;28;20087;-93
2023/01/25 09:03:03;;;;;;;45.83;24.05;;;;;;;;;;5031534;28;20092;-93
2023/01/25 09:05:29;;;;;;;45.20;23.65;;;;;;;;;;5014219;28;20068;-93
2023/01/25 09:07:55;;;;;;;42.58;23.60;;;;;;;;;;5027301;28;20072;-92
2023/01/25 09:10:21;;;;;;;43.33;23.40;;;;;;;;;;5032758;28;20088;-92
2023/01/25 09:12:47;;;;;;;43.83;23.17;;;;;;;;;;5031706;28;20041;-92
2023/01/25 09:15:13;;;;;;;43.78;23.58;;;;;;;;;;5026794;28;20037;-92
2023/01/25 09:17:39;;;;;;;41.20;22.20;;;;;;;;;;5030413;28;20038;-92
2023/01/25 09:20:06;;;;;;;46.08;23.38;;;;;;;;;;5032191;28;20052;-93
2023/01/25 09:22:32;;;;;;;42.00;22.75;;;;;;;;;;5031500;28;20041;-92
2023/01/25 09:24:58;;;;;;;43.22;22.80;;;;;;;;;;5030441;28;20495;-93
2023/01/25 09:27:27;;;;;;;44.15;23.80;;;;;;;;;;5031837;28;20041;-93
2023/01/25 09:29:53;;;;;;;44.13;22.73;;;;;;;;;;5031819;28;20048;-92
2023/01/25 09:32:19;;;;;;;39.03;22.33;;;;;;;;;;5031429;28;20489;-92
2023/01/25 09:34:45;;;;;;;43.75;22.38;;;;;;;;;;5031882;28;20079;-92
2023/01/25 09:37:11;;;;;;;59.72;24.27;;;;;;;;;;5027942;28;20088;-90
2023/01/25 09:39:37;;;;;;;39.78;21.70;;;0.00;99.90;;;;;;5029057;28;20049;-92
2023/01/25 09:42:22;;;;;;;43.30;22.65;;;0.00;99.90;;;;;;5029209;28;20110;-87
2023/01/25 09:44:59;;;;;;;41.08;22.00;;;-0.10;99.90;;;;;;5048279;28;20059;-92
2023/01/25 09:47:39;;;;;;;36.70;20.30;;;-0.10;99.90;;;;;;5047606;28;20048;-92
2023/01/25 09:50:23;;;;;;;42.95;21.92;;;-0.10;99.90;;;;;;5024390;28;20044;-90
2023/01/25 09:52:57;;;;;;;40.65;21.48;;;-0.10;99.90;;;;;;5023193;28;20061;-90
2023/01/25 09:55:26;;;;;;;37.40;21.20;;;-0.10;99.90;;;;;;5021941;28;20083;-91
2023/01/25 09:57:55;;;;;;;43.90;22.40;;;-0.10;99.90;;;;;;5042732;28;20045;-89
2023/01/25 10:00:28;;;;;;;42.13;21.33;;;-0.20;99.90;;;;;;5021811;28;20099;-92
2023/01/25 10:03:00;;;;;;;39.78;21.35;;;-0.70;99.90;;;;;;5011943;28;20146;-91
2023/01/25 10:05:30;;;;;;;38.53;21.30;;;-0.10;99.90;;;;;;5020927;28;20119;-92
2023/01/25 10:08:02;;;;;;;41.50;22.48;;;0.00;99.90;;;;;;5031705;28;20083;-93
2023/01/25 10:10:40;;;;;;;37.70;20.70;;;0.00;99.90;;;;;;5032312;28;20075;-92
2023/01/25 10:13:20;;;;;;;37.90;21.33;;;0.00;99.90;;;;;;5029329;28;20064;-93
2023/01/25 10:15:57;;;;;;;35.60;19.88;;;0.10;99.90;;;;;;5017704;28;20048;-91
2023/01/25 10:18:48;;;;;;;37.08;20.85;;;0.00;99.90;;;;;;5032949;28;20048;-90
2023/01/25 10:21:27;;;;;;;38.55;21.20;;;0.90;99.90;;;;;;5016035;28;20049;-90
2023/01/25 10:24:22;;;;;;;38.78;21.45;;;0.00;99.90;;;;;;5016899;28;20041;-94
2023/01/25 10:26:55;;;;;;;39.22;21.55;;;0.00;99.90;;;;;;5024032;28;20042;-92
2023/01/25 10:29:33;;;;;;;36.83;19.92;;;0.00;99.90;;;;;;5029283;28;20095;-94
2023/01/25 10:32:25;;;;;;;35.60;19.73;;;0.00;99.90;;;;;;5018127;28;20099;-94
2023/01/25 10:34:54;;;;;;;37.20;19.40;;;0.00;99.90;;;;;;5018518;28;20088;-92
2023/01/25 10:37:24;;;;;;;37.05;19.92;;;1.00;99.90;;;;;;5034330;28;20068;-93
2023/01/25 10:40:15;;;;;;;34.55;19.08;;;0.00;99.90;;;;;;5027786;28;20044;-92
2023/01/25 10:42:46;;;;;;;37.85;19.77;;;0.00;99.90;;;;;;5037745;28;20048;-95
2023/01/25 10:45:14;;;;;;;33.22;18.23;;;-0.10;99.90;;;;;;5037301;28;20041;-92
2023/01/25 10:47:47;;;;;;;34.55;18.83;;;-0.10;99.90;;;;;;5038406;28;20133;-94
2023/01/25 10:50:40;;;;;;;37.72;19.38;;;-0.10;99.90;;;;;;5035482;28;20487;-94
2023/01/25 10:53:19;;;;;;;39.92;20.58;;;-0.10;99.90;;;;;;5034756;28;20080;-93
2023/01/25 10:56:09;;;;;;;40.53;20.52;;;-0.10;99.90;;;;;;5034591;28;20053;-93
2023/01/25 10:58:37;;;;;;;38.53;20.80;;;-0.10;99.90;;;;;;5034815;28;20088;-94
2023/01/25 11:01:11;;;;;;;40.78;21.33;;;-0.10;99.90;;;;;;5018960;28;20063;-93
2023/01/25 11:03:43;;;;;;;43.13;21.73;;;-0.20;99.90;;;;;;5031029;28;20044;-91
2023/01/25 11:06:11;;;;;;;;;;;0.00;99.90;;;;;;5041912;28;20422;-95
2023/01/25 11:08:41;;;;;;;42.20;21.30;;;0.00;99.90;;;;;;5039810;28;19931;-93
2023/01/25 11:11:31;;;;;;;40.22;20.70;;;0.00;99.90;;;;;;5044430;28;20037;-95
2023/01/25 11:13:57;;;;;;;40.45;20.90;;;0.00;99.90;;;;;;5054953;28;20056;-95
2023/01/25 11:17:19;;;;;;;43.38;21.80;;;0.70;99.90;;;;;;5032616;28;20127;-94
2023/01/25 11:19:48;;;;;;;43.38;23.25;;;0.00;99.90;;;;;;5024385;28;20131;-94
2023/01/25 11:22:27;;;;;;;44.78;22.27;;;0.00;99.90;;;;;;5075327;23;20151;-94
2023/01/25 11:24:53;;;;;;;42.60;22.20;;;-0.50;99.90;;;;;;4993491;28;20073;-95
2023/01/25 11:27:20;;;;;;;41.47;21.33;;;0.00;99.90;;;;;;5004315;28;20053;-95
2023/01/25 11:30:09;;;;;;;39.97;21.60;;;0.50;99.90;;;;;;4999203;28;20045;-96
2023/01/25 11:32:39;;;;;;;47.80;22.02;;;-0.20;99.90;;;;;;4974763;28;20056;-96
2023/01/25 11:35:21;;;;;;;42.28;21.65;;;-0.20;99.90;;;;;;4996849;28;20088;-92
2023/01/25 11:38:16;;;;;;;42.60;21.65;;;-0.90;99.90;;;;;;4998841;28;20037;-95
2023/01/25 11:41:23;;;;;;;42.78;20.80;;;-0.10;99.90;;;;;;4987632;28;20045;-95
2023/01/25 11:44:16;;;;;;;39.20;18.63;;;-0.10;99.90;;;;;;4983702;28;20057;-94
2023/01/25 11:46:57;;;;;;;39.85;18.90;;;-0.10;99.90;;;;;;4997764;28;20567;-92
2023/01/25 11:50:05;;;;;;;41.22;20.08;;;-0.20;99.90;;;;;;4983107;28;20049;-95
2023/01/25 11:52:41;;;;;;;37.92;19.73;;;-0.10;99.90;;;;;;4984917;28;20072;-92
2023/01/25 11:55:24;;;;;;;41.80;21.10;;;1.20;99.90;;;;;;4994243;28;20052;-94
2023/01/25 11:58:09;;;;;;;37.28;18.80;;;-0.10;99.90;;;;;;4992341;28;20034;-90
2023/01/25 12:01:05;;;;;;;40.97;21.50;;;-0.10;99.90;;;;;;4966398;28;20050;-90
2023/01/25 12:04:01;;;;;;;43.28;21.02;;;-0.10;99.90;;;;;;4967627;28;20082;-92
2023/01/25 12:07:03;;;;;;;43.83;20.50;;;0.60;99.90;;;;;;4990756;28;20038;-92
2023/01/25 12:13:17;;;;;;;45.60;21.60;;;0.00;99.90;;;;;;4991425;28;20142;-90
2023/01/25 12:15:57;;;;;;;42.88;19.52;;;0.00;99.90;;;;;;4958341;28;20042;-92
2023/01/25 12:18:57;;;;;;;40.88;19.48;;;-0.10;99.90;;;;;;4990702;28;20046;-93
2023/01/25 12:21:53;;;;;;;43.15;19.33;;;-0.10;99.90;;;;;;4958331;28;20042;-90
2023/01/25 12:24:45;;;;;;;40.33;18.48;;;-0.10;99.90;;;;;;4957082;28;20144;-92
2023/01/25 12:27:32;;;;;;;43.20;18.65;;;-0.20;99.90;;;;;;4962417;28;20057;-93
2023/01/25 12:30:25;;;;;;;41.40;18.73;;;-0.10;99.90;;;;;;4972935;28;20082;-93
2023/01/25 12:33:19;;;;;;;41.05;18.08;;;-0.10;99.90;;;;;;4988324;28;20492;-93
2023/01/25 12:35:53;;;;;;;40.58;18.73;;;-0.10;99.90;;;;;;4935070;28;20049;-94
2023/01/25 12:38:27;;;;;;;41.45;19.95;;;0.30;99.90;;;;;;4980390;28;20811;-93
2023/01/25 12:41:07;;;;;;;40.22;18.73;;;-0.10;99.90;;;;;;4974798;28;20061;-92
2023/01/25 12:43:48;;;;;;;40.80;20.17;;;0.90;99.90;;;;;;4972775;28;20057;-92
2023/01/25 12:46:25;;;;;;;41.63;20.10;;;-0.10;99.90;;;;;;4969519;28;20049;-93
2023/01/25 12:48:53;;;;;;;44.35;19.98;;;-0.10;99.90;;;;;;4973002;28;20046;-93
2023/01/25 12:51:23;;;;;;;43.97;18.92;;;0.80;99.90;;;;;;4974393;28;20456;-91
2023/01/25 12:53:51;;;;;;;42.63;19.80;;;-0.10;99.90;;;;;;4966183;28;20056;-93
2023/01/25 12:56:39;;;;;;;44.08;18.13;;;-0.10;99.90;;;;;;4964611;28;20204;-90
2023/01/25 12:59:22;;;;;;;43.05;20.35;;;-0.10;99.90;;;;;;4972155;28;20050;-92
2023/01/25 13:01:59;;;;;;;45.25;19.92;;;-0.20;99.90;;;;;;4956688;28;20054;-91
2023/01/25 13:04:45;;;;;;;40.72;19.20;;;-0.30;99.90;;;;;;4962789;28;20520;-91
2023/01/25 13:07:39;;;;;;;42.00;20.33;;;0.00;99.90;;;;;;4969581;28;20104;-90
2023/01/25 13:10:21;;;;;;;42.25;20.27;;;0.00;99.90;;;;;;4956434;28;20386;-89
2023/01/25 13:12:52;;;;;;;38.55;18.63;;;0.40;99.90;;;;;;4955567;28;20054;-92
2023/01/25 13:15:44;;;;;;;43.67;19.45;;;-0.10;99.90;;;;;;4951445;28;20046;-91
2023/01/25 13:18:31;;;;;;;39.65;19.15;;;-0.20;99.90;;;;;;4961590;28;20061;-89
2023/01/25 13:21:07;;;;;;;42.22;20.00;;;-0.20;99.90;;;;;;4957265;28;20096;-91
2023/01/25 13:23:45;;;;;;;49.17;21.02;;;-0.20;99.90;;;;;;4955711;28;20058;-91